Time;durP1;ratioP1;P1;durP2;ratioP2;P2;SDS_P1;SDS_P2;PMS_P1;PMS_P2;Temp;Humidity;BMP_temperature;BMP_pressure;BME280_temperature;BME280_humidity;BME280_pressure;Samples;Min_cycle;Max_cycle;Signal;HPM_P1;HPM_P2
2023/12/08 00:01:06;;;;;;;6.80;4.77;;;-2.30;90.00;;;;;;6269373;28;20197;-65
2023/12/08 00:04:07;;;;;;;7.87;4.20;;;-2.30;90.00;;;;;;6267472;28;20192;-65
2023/12/08 00:07:08;;;;;;;6.03;4.23;;;-2.30;89.70;;;;;;6270856;28;20208;-65
2023/12/08 00:10:09;;;;;;;5.63;3.93;;;-2.40;89.80;;;;;;6263201;28;20204;-65
2023/12/08 00:13:09;;;;;;;5.07;3.77;;;-2.40;91.30;;;;;;6283548;28;20202;-65
2023/12/08 00:16:10;;;;;;;4.33;3.93;;;-2.40;90.40;;;;;;6268953;28;20288;-65
2023/12/08 00:19:11;;;;;;;5.67;3.67;;;-2.40;89.90;;;;;;6284564;28;20189;-65
2023/12/08 00:22:12;;;;;;;6.77;3.93;;;-2.40;90.80;;;;;;6290946;28;20193;-65
2023/12/08 00:25:12;;;;;;;5.47;4.30;;;-2.40;89.50;;;;;;6266061;28;20189;-65
2023/12/08 00:28:13;;;;;;;6.60;4.13;;;-2.50;89.30;;;;;;6272314;28;20192;-65
2023/12/08 00:31:14;;;;;;;5.37;3.43;;;-2.50;90.20;;;;;;6280805;28;20205;-65
2023/12/08 00:34:14;;;;;;;5.13;4.00;;;-2.40;90.40;;;;;;6268788;28;20237;-65
2023/12/08 00:37:15;;;;;;;6.40;4.43;;;-2.40;90.00;;;;;;6265400;28;20667;-65
2023/12/08 00:40:17;;;;;;;4.30;3.73;;;-2.50;89.80;;;;;;6265219;28;20190;-65
2023/12/08 00:43:17;;;;;;;6.20;4.50;;;-2.50;90.20;;;;;;6269907;28;20222;-65
2023/12/08 00:46:18;;;;;;;4.97;3.73;;;-2.50;90.20;;;;;;6293669;28;20194;-65
2023/12/08 00:49:19;;;;;;;7.50;4.17;;;-2.50;90.40;;;;;;6274958;28;20197;-65
2023/12/08 00:52:20;;;;;;;5.97;3.67;;;-2.50;90.80;;;;;;6271621;28;20224;-64
2023/12/08 00:55:21;;;;;;;6.97;4.23;;;-2.40;91.00;;;;;;6285274;28;20210;-65
2023/12/08 00:58:21;;;;;;;6.27;4.60;;;-2.40;91.10;;;;;;6262598;28;20199;-65
2023/12/08 01:01:23;;;;;;;7.27;3.50;;;-2.40;90.00;;;;;;6268951;28;20278;-65
2023/12/08 01:04:23;;;;;;;5.00;3.63;;;-2.40;89.90;;;;;;6311446;28;20179;-65
2023/12/08 01:07:24;;;;;;;6.60;4.67;;;-2.50;88.50;;;;;;6283415;28;20197;-65
2023/12/08 01:10:25;;;;;;;5.10;3.60;;;-2.50;89.40;;;;;;6266752;28;20186;-65
2023/12/08 01:13:25;;;;;;;4.77;3.47;;;-2.50;89.50;;;;;;6283204;28;20197;-65
2023/12/08 01:16:26;;;;;;;4.90;3.70;;;-2.60;89.10;;;;;;6270044;28;20209;-65
2023/12/08 01:19:27;;;;;;;5.00;3.80;;;-2.60;89.50;;;;;;6286754;28;20194;-65
2023/12/08 01:22:28;;;;;;;5.87;3.93;;;-2.60;89.10;;;;;;6280820;28;20187;-65
2023/12/08 01:25:28;;;;;;;5.90;4.17;;;-2.60;89.10;;;;;;6252722;28;20190;-65
2023/12/08 01:28:29;;;;;;;4.13;3.70;;;-2.60;89.40;;;;;;6280534;28;20283;-65
2023/12/08 01:31:30;;;;;;;4.30;3.43;;;-2.60;89.40;;;;;;6271303;28;20286;-65
2023/12/08 01:34:30;;;;;;;6.13;3.87;;;-2.60;89.20;;;;;;6268667;28;20187;-65
2023/12/08 01:37:31;;;;;;;5.27;3.77;;;-2.70;89.60;;;;;;6269671;28;20214;-65
2023/12/08 01:40:32;;;;;;;5.67;3.73;;;-2.60;89.50;;;;;;6279759;28;20211;-65
2023/12/08 01:43:32;;;;;;;6.63;4.07;;;-2.70;89.00;;;;;;6249657;28;20239;-65
2023/12/08 01:46:36;;;;;;;6.27;3.67;;;-2.70;89.20;;;;;;6269730;28;20193;-65
2023/12/08 01:49:38;;;;;;;6.70;3.87;;;-2.70;88.90;;;;;;6300916;28;20186;-65
2023/12/08 01:52:39;;;;;;;5.70;4.07;;;-2.70;88.20;;;;;;6301789;28;20194;-65
2023/12/08 01:55:40;;;;;;;6.10;3.80;;;-2.80;88.00;;;;;;6273353;28;20206;-65
2023/12/08 01:58:42;;;;;;;5.10;3.63;;;-2.90;88.90;;;;;;6264594;28;20190;-65
2023/12/08 02:01:43;;;;;;;8.50;3.57;;;-2.80;89.50;;;;;;6274973;28;20213;-65
2023/12/08 02:04:47;;;;;;;4.43;3.70;;;-2.80;88.80;;;;;;6268609;28;20190;-64
2023/12/08 02:07:48;;;;;;;6.70;3.73;;;-2.80;89.20;;;;;;6291102;28;20227;-64
2023/12/08 02:10:49;;;;;;;5.30;4.33;;;-2.80;88.80;;;;;;6290124;28;20278;-65
2023/12/08 02:13:50;;;;;;;4.90;3.80;;;-2.90;89.40;;;;;;6248673;28;20215;-65
2023/12/08 02:17:00;;;;;;;5.83;3.77;;;-2.90;89.00;;;;;;6264726;28;20204;-65
2023/12/08 02:20:03;;;;;;;6.00;4.20;;;-2.90;88.40;;;;;;6295864;28;20198;-65
2023/12/08 02:23:05;;;;;;;7.13;4.43;;;-2.90;89.10;;;;;;6281592;28;20329;-65
2023/12/08 02:26:06;;;;;;;6.20;3.50;;;-2.90;89.40;;;;;;6271287;28;20212;-65
2023/12/08 02:29:09;;;;;;;5.63;3.70;;;-2.90;88.90;;;;;;6266088;28;20217;-65
2023/12/08 02:32:37;;;;;;;7.27;3.87;;;-2.90;88.50;;;;;;6264307;28;20190;-65
2023/12/08 02:35:42;;;;;;;4.40;3.53;;;-2.90;88.20;;;;;;6292204;28;20209;-65
2023/12/08 02:38:44;;;;;;;5.90;4.07;;;-2.90;88.70;;;;;;6281808;28;20212;-65
2023/12/08 02:41:44;;;;;;;6.00;4.33;;;-2.90;88.90;;;;;;6287806;28;20253;-65
2023/12/08 02:44:45;;;;;;;6.57;4.37;;;-3.00;88.40;;;;;;6289291;28;20228;-65
2023/12/08 02:47:46;;;;;;;6.03;3.67;;;-3.00;88.90;;;;;;6258756;28;20182;-65
2023/12/08 02:50:46;;;;;;;6.00;4.03;;;-3.00;88.20;;;;;;6319373;28;20185;-65
2023/12/08 02:53:47;;;;;;;6.07;4.43;;;-3.00;87.50;;;;;;6276139;28;20199;-64
2023/12/08 02:56:48;;;;;;;6.43;4.40;;;-3.00;87.80;;;;;;6288103;28;20211;-64
2023/12/08 02:59:48;;;;;;;5.13;4.00;;;-3.10;88.00;;;;;;6266402;28;20182;-64
2023/12/08 03:02:49;;;;;;;5.83;3.80;;;-3.10;88.70;;;;;;6271253;28;20186;-64
2023/12/08 03:05:50;;;;;;;7.20;4.67;;;-3.10;88.70;;;;;;6278394;28;20189;-64
2023/12/08 03:08:51;;;;;;;7.83;4.63;;;-3.00;89.40;;;;;;6264696;28;20276;-64
2023/12/08 03:11:52;;;;;;;6.63;5.03;;;-3.00;89.70;;;;;;6265870;28;20199;-64
2023/12/08 03:14:53;;;;;;;5.80;4.13;;;-2.90;89.90;;;;;;6268181;28;20294;-65
2023/12/08 03:17:53;;;;;;;7.37;5.03;;;-2.90;88.90;;;;;;6266715;28;20190;-65
2023/12/08 03:20:54;;;;;;;6.73;4.90;;;-2.90;89.50;;;;;;6271115;28;20190;-65
2023/12/08 03:23:55;;;;;;;6.93;4.70;;;-2.90;89.60;;;;;;6265557;28;20186;-65
2023/12/08 03:26:55;;;;;;;6.93;5.20;;;-3.00;87.70;;;;;;6301930;28;20186;-65
2023/12/08 03:29:56;;;;;;;6.50;4.50;;;-3.00;87.70;;;;;;6268182;28;20201;-64
2023/12/08 03:32:57;;;;;;;7.07;4.77;;;-3.10;87.00;;;;;;6271046;28;20199;-65
2023/12/08 03:35:57;;;;;;;6.90;4.70;;;-3.20;87.20;;;;;;6273053;28;20210;-65
2023/12/08 03:38:58;;;;;;;6.93;4.57;;;-3.20;87.60;;;;;;6290281;28;20184;-65
2023/12/08 03:41:59;;;;;;;7.30;5.17;;;-3.20;87.60;;;;;;6273919;28;20185;-65
2023/12/08 03:44:59;;;;;;;7.23;5.00;;;-3.20;88.60;;;;;;6287529;28;20241;-65
2023/12/08 03:48:00;;;;;;;8.30;5.00;;;-3.20;88.40;;;;;;6257172;28;20287;-65
2023/12/08 03:51:05;;;;;;;6.30;4.53;;;-3.20;88.20;;;;;;6286038;28;20209;-64
2023/12/08 03:54:06;;;;;;;5.50;4.83;;;-3.20;87.50;;;;;;6289878;28;20219;-65
2023/12/08 03:57:07;;;;;;;5.27;4.57;;;-3.20;87.70;;;;;;6288276;28;20213;-64
2023/12/08 04:00:10;;;;;;;6.93;4.47;;;-3.20;87.70;;;;;;6281560;28;20403;-64
2023/12/08 04:03:11;;;;;;;8.43;5.57;;;-3.40;87.30;;;;;;6275401;28;20190;-64
2023/12/08 04:06:12;;;;;;;9.40;5.23;;;-3.40;88.00;;;;;;6290543;28;20193;-65
2023/12/08 04:09:12;;;;;;;7.13;4.87;;;-3.30;88.30;;;;;;6267624;28;20207;-65
2023/12/08 04:12:13;;;;;;;8.40;4.67;;;-3.20;89.20;;;;;;6272932;28;20202;-65
2023/12/08 04:15:14;;;;;;;8.43;5.53;;;-3.20;88.90;;;;;;6285443;28;20309;-65
2023/12/08 04:18:14;;;;;;;7.00;5.20;;;-3.20;89.70;;;;;;6285192;28;20208;-65
2023/12/08 04:21:18;;;;;;;9.47;4.90;;;-3.20;88.10;;;;;;6298167;28;20216;-65
2023/12/08 04:24:19;;;;;;;7.07;4.80;;;-3.20;87.90;;;;;;6303232;28;20193;-65
2023/12/08 04:27:20;;;;;;;9.70;6.30;;;-3.20;87.10;;;;;;6296087;28;20201;-65
2023/12/08 04:30:20;;;;;;;8.13;5.33;;;-3.20;88.10;;;;;;6264303;28;20201;-65
2023/12/08 04:33:21;;;;;;;6.30;4.97;;;-3.20;88.30;;;;;;6264486;28;20272;-65
2023/12/08 04:36:22;;;;;;;7.47;5.60;;;-3.20;86.70;;;;;;6278984;28;20222;-65
2023/12/08 04:39:22;;;;;;;7.70;5.47;;;-3.30;87.30;;;;;;6261353;28;20277;-65
2023/12/08 04:42:23;;;;;;;7.43;5.30;;;-3.40;87.80;;;;;;6266039;28;20183;-65
2023/12/08 04:45:24;;;;;;;7.43;5.23;;;-3.40;87.30;;;;;;6271596;28;20195;-65
2023/12/08 04:48:24;;;;;;;8.00;5.60;;;-3.30;87.60;;;;;;6260451;28;20193;-65
2023/12/08 04:51:25;;;;;;;8.20;5.60;;;-3.40;87.10;;;;;;6271012;28;20205;-65
2023/12/08 04:54:26;;;;;;;12.57;6.40;;;-3.40;87.30;;;;;;6290209;28;20191;-65
2023/12/08 04:57:27;;;;;;;8.97;6.13;;;;;;;;;;6266205;28;20208;-65
2023/12/08 05:00:29;;;;;;;8.13;5.53;;;;;;;;;;6300864;28;20185;-65
2023/12/08 05:03:30;;;;;;;8.00;5.50;;;;;;;;;;6279097;28;20196;-65
2023/12/08 05:06:31;;;;;;;8.77;6.37;;;;;;;;;;6299619;28;20191;-65
2023/12/08 05:09:32;;;;;;;9.43;6.47;;;;;;;;;;6296360;28;20193;-65
2023/12/08 05:12:33;;;;;;;7.63;5.80;;;;;;;;;;6277042;28;20199;-65
2023/12/08 05:15:34;;;;;;;8.43;6.37;;;;;;;;;;6286634;28;20236;-65
2023/12/08 05:18:35;;;;;;;8.43;6.13;;;;;;;;;;6278274;28;20260;-65
2023/12/08 05:21:36;;;;;;;10.20;6.00;;;;;;;;;;6312700;28;20272;-65
2023/12/08 05:24:38;;;;;;;9.33;5.87;;;;;;;;;;6266167;28;20186;-65
2023/12/08 05:27:39;;;;;;;7.93;5.90;;;;;;;;;;6287632;28;20201;-65
2023/12/08 05:30:40;;;;;;;9.53;6.20;;;;;;;;;;6273371;28;20224;-65
2023/12/08 05:33:42;;;;;;;8.83;5.53;;;;;;;;;;6291462;28;20198;-65
2023/12/08 05:36:43;;;;;;;12.07;6.37;;;;;;;;;;6286251;28;20213;-65
2023/12/08 05:39:44;;;;;;;10.97;6.77;;;;;;;;;;6271346;28;20190;-65
2023/12/08 05:42:45;;;;;;;12.20;7.37;;;;;;;;;;6288236;28;20234;-65
2023/12/08 05:45:46;;;;;;;8.90;6.00;;;;;;;;;;6283725;28;20205;-64
2023/12/08 05:48:47;;;;;;;9.97;6.37;;;;;;;;;;6266146;28;20202;-64
2023/12/08 05:51:48;;;;;;;8.27;5.80;;;;;;;;;;6284998;28;20201;-64
2023/12/08 05:54:49;;;;;;;11.43;6.37;;;;;;;;;;6308497;28;20190;-64
2023/12/08 05:57:52;;;;;;;9.70;6.47;;;;;;;;;;6280549;28;20186;-64
2023/12/08 06:00:53;;;;;;;7.90;5.80;;;;;;;;;;6279728;28;20197;-66
2023/12/08 06:03:53;;;;;;;7.73;5.30;;;-3.50;87.10;;;;;;6280801;28;20218;-64
2023/12/08 06:06:54;;;;;;;7.93;6.10;;;-4.00;86.70;;;;;;6273148;28;20198;-64
2023/12/08 06:09:54;;;;;;;10.40;6.40;;;-3.90;87.00;;;;;;6279050;28;20199;-65
2023/12/08 06:12:55;;;;;;;12.97;7.27;;;-3.90;86.60;;;;;;6270763;28;20200;-66
2023/12/08 06:15:56;;;;;;;10.27;6.87;;;-3.90;86.50;;;;;;6265309;28;20212;-64
2023/12/08 06:18:57;;;;;;;10.50;7.23;;;-3.80;87.00;;;;;;6275875;28;21728;-64
2023/12/08 06:21:57;;;;;;;12.30;6.70;;;-3.80;86.90;;;;;;6271316;28;20656;-64
2023/12/08 06:24:58;;;;;;;9.97;6.70;;;-3.80;86.70;;;;;;6290634;28;20194;-66
2023/12/08 06:27:59;;;;;;;12.10;6.87;;;-3.80;86.60;;;;;;6268929;28;20204;-64
2023/12/08 06:30:59;;;;;;;9.47;6.40;;;-3.80;86.70;;;;;;6282398;28;20285;-64
2023/12/08 06:34:01;;;;;;;10.53;6.50;;;-3.80;86.20;;;;;;6279752;28;20217;-64
2023/12/08 06:37:02;;;;;;;13.50;6.83;;;-3.80;86.30;;;;;;6283544;28;20220;-64
2023/12/08 06:40:03;;;;;;;10.53;7.13;;;-3.80;86.20;;;;;;6275409;28;20225;-64
2023/12/08 06:43:05;;;;;;;10.83;7.67;;;-3.70;85.90;;;;;;6264995;28;20238;-64
2023/12/08 06:46:05;;;;;;;11.87;7.67;;;-3.70;86.70;;;;;;6265866;28;20256;-64
2023/12/08 06:49:06;;;;;;;13.03;7.63;;;-3.60;86.50;;;;;;6265880;28;20194;-64
2023/12/08 06:52:07;;;;;;;11.10;7.40;;;-3.60;85.90;;;;;;6267286;28;20197;-64
2023/12/08 06:55:08;;;;;;;13.23;7.30;;;-3.60;86.90;;;;;;6276006;28;22133;-64
2023/12/08 06:58:08;;;;;;;13.23;8.20;;;-3.60;85.40;;;;;;6277773;28;20194;-64
2023/12/08 07:01:10;;;;;;;13.13;6.93;;;-3.70;86.50;;;;;;6280989;28;20206;-65
2023/12/08 07:04:10;;;;;;;11.77;7.70;;;-3.60;86.20;;;;;;6304172;28;20203;-64
2023/12/08 07:07:11;;;;;;;10.63;6.90;;;-3.60;86.40;;;;;;6259361;28;20196;-64
2023/12/08 07:10:12;;;;;;;11.83;7.83;;;-3.50;86.90;;;;;;6256106;28;20260;-65
2023/12/08 07:13:13;;;;;;;13.40;8.07;;;-3.40;86.10;;;;;;6293145;28;20197;-65
2023/12/08 07:16:14;;;;;;;11.03;7.57;;;-3.40;87.40;;;;;;6291824;28;20209;-65
2023/12/08 07:19:14;;;;;;;12.90;7.67;;;-3.20;86.60;;;;;;6306505;28;20189;-65
2023/12/08 07:22:15;;;;;;;11.13;7.23;;;-3.20;87.10;;;;;;6265277;28;20182;-64
2023/12/08 07:25:16;;;;;;;10.27;7.30;;;-3.10;86.90;;;;;;6268360;28;20195;-64
2023/12/08 07:28:16;;;;;;;10.37;7.10;;;-3.00;87.10;;;;;;6287523;28;20192;-63
2023/12/08 07:31:17;;;;;;;14.97;7.87;;;-2.90;87.10;;;;;;6266408;28;20265;-63
2023/12/08 07:34:18;;;;;;;14.07;7.50;;;-2.80;86.80;;;;;;6276992;28;20210;-63
2023/12/08 07:37:18;;;;;;;12.87;8.27;;;-2.70;86.90;;;;;;6284229;28;20205;-63
2023/12/08 07:40:19;;;;;;;11.23;7.90;;;;;;;;;;6292407;28;20187;-63
2023/12/08 07:43:20;;;;;;;12.97;8.40;;;-2.70;86.30;;;;;;6299502;28;20252;-63
2023/12/08 07:46:23;;;;;;;15.47;8.90;;;-2.50;86.30;;;;;;6267873;28;20221;-63
2023/12/08 07:49:24;;;;;;;11.77;7.53;;;-2.40;86.20;;;;;;6264850;28;20191;-63
2023/12/08 07:52:25;;;;;;;13.23;8.80;;;-2.40;85.80;;;;;;6262450;28;20196;-65
2023/12/08 07:55:26;;;;;;;15.97;10.40;;;-2.30;85.60;;;;;;6287465;28;20225;-63
2023/12/08 07:58:27;;;;;;;13.80;8.60;;;-2.30;85.40;;;;;;6284298;28;20239;-63
2023/12/08 08:01:27;;;;;;;14.30;8.63;;;-2.30;85.20;;;;;;6262476;28;20212;-63
2023/12/08 08:04:28;;;;;;;12.10;8.57;;;-2.20;85.10;;;;;;6264917;28;20217;-63
2023/12/08 08:07:29;;;;;;;17.33;9.37;;;-2.20;85.00;;;;;;6260570;28;20224;-63
2023/12/08 08:10:29;;;;;;;15.27;9.33;;;-2.20;85.00;;;;;;6281745;28;20197;-63
2023/12/08 08:13:30;;;;;;;16.40;10.20;;;-2.10;85.60;;;;;;6278852;28;20199;-64
2023/12/08 08:16:31;;;;;;;16.37;9.63;;;-2.10;84.60;;;;;;6298682;28;20308;-64
2023/12/08 08:19:31;;;;;;;15.57;9.63;;;-2.10;84.40;;;;;;6263530;28;20190;-63
2023/12/08 08:22:33;;;;;;;11.23;8.43;;;-1.90;84.60;;;;;;6292380;28;20197;-63
2023/12/08 08:25:33;;;;;;;12.97;8.43;;;-1.80;84.00;;;;;;6284694;28;20199;-64
2023/12/08 08:28:34;;;;;;;12.57;8.93;;;-1.80;83.90;;;;;;6289130;28;20218;-63
2023/12/08 08:31:35;;;;;;;12.57;9.23;;;-1.70;83.40;;;;;;6255680;28;20280;-64
2023/12/08 08:34:35;;;;;;;14.23;8.87;;;-1.60;83.60;;;;;;6263427;28;20199;-63
2023/12/08 08:37:36;;;;;;;15.63;9.33;;;-1.60;83.00;;;;;;6272197;28;20215;-63
2023/12/08 08:40:37;;;;;;;11.93;8.40;;;-1.50;82.70;;;;;;6269215;28;20254;-63
2023/12/08 08:43:38;;;;;;;14.27;8.70;;;-1.50;81.70;;;;;;6270459;28;20251;-63
2023/12/08 08:46:40;;;;;;;12.07;9.50;;;-1.40;82.20;;;;;;6304774;28;20207;-63
2023/12/08 08:49:41;;;;;;;13.07;8.43;;;-1.30;82.10;;;;;;6302983;28;20200;-64
2023/12/08 08:52:41;;;;;;;12.50;10.48;;;-1.30;81.80;;;;;;6267992;28;20735;-64
2023/12/08 08:55:43;;;;;;;15.37;9.47;;;-1.10;81.30;;;;;;6271165;28;20208;-65
2023/12/08 08:58:44;;;;;;;11.00;8.30;;;-1.10;81.90;;;;;;6283591;28;20193;-63
2023/12/08 09:01:44;;;;;;;13.77;9.33;;;-1.10;81.90;;;;;;6264042;28;20218;-64
2023/12/08 09:04:45;;;;;;;15.17;8.83;;;-1.10;81.00;;;;;;6263278;28;20276;-63
2023/12/08 09:07:46;;;;;;;13.90;9.63;;;-1.10;80.90;;;;;;6286009;28;20234;-63
2023/12/08 09:10:47;;;;;;;15.87;10.23;;;-1.00;81.20;;;;;;6277979;28;20193;-64
2023/12/08 09:13:48;;;;;;;18.03;10.07;;;-1.00;80.40;;;;;;6290334;28;20188;-64
2023/12/08 09:16:48;;;;;;;17.20;10.93;;;-1.00;81.20;;;;;;6285796;28;20208;-63
2023/12/08 09:19:49;;;;;;;18.57;11.33;;;-0.90;81.40;;;;;;6285060;28;20238;-63
2023/12/08 09:22:53;;;;;;;16.00;9.73;;;;;;;;;;6291815;28;20172;-64
2023/12/08 09:25:54;;;;;;;14.83;10.03;;;;;;;;;;6273544;28;20185;-64
2023/12/08 09:28:55;;;;;;;17.53;10.10;;;;;;;;;;6303654;28;20297;-64
2023/12/08 09:31:56;;;;;;;16.23;9.10;;;;;;;;;;6282486;28;20314;-64
2023/12/08 09:34:57;;;;;;;15.67;9.57;;;;;;;;;;6269581;28;20223;-63
2023/12/08 09:37:59;;;;;;;14.97;9.53;;;;;;;;;;6280040;28;20227;-64
2023/12/08 09:41:01;;;;;;;16.47;9.77;;;;;;;;;;6279050;28;20250;-63
2023/12/08 09:44:14;;;;;;;16.47;9.83;;;;;;;;;;6289100;28;20251;-64
2023/12/08 09:47:19;;;;;;;15.13;9.20;;;;;;;;;;6287128;28;20197;-63
2023/12/08 09:50:20;;;;;;;14.17;9.63;;;;;;;;;;6313835;28;20220;-64
2023/12/08 09:53:21;;;;;;;14.77;9.57;;;;;;;;;;6308486;28;20192;-64
2023/12/08 09:56:23;;;;;;;16.30;10.17;;;;;;;;;;6293643;28;20223;-63
2023/12/08 09:59:27;;;;;;;17.03;10.33;;;;;;;;;;6283313;28;20244;-64
2023/12/08 10:02:28;;;;;;;14.53;10.13;;;;;;;;;;6304936;28;20192;-64
2023/12/08 10:05:29;;;;;;;13.90;9.60;;;;;;;;;;6311087;28;20180;-64
2023/12/08 10:08:30;;;;;;;14.10;9.57;;;;;;;;;;6313962;28;20210;-64
2023/12/08 10:11:31;;;;;;;16.67;10.23;;;;;;;;;;6282745;28;20230;-63
2023/12/08 10:14:32;;;;;;;16.00;9.97;;;;;;;;;;6288894;28;20200;-64
2023/12/08 10:17:34;;;;;;;13.47;10.17;;;;;;;;;;6304094;28;20211;-64
2023/12/08 10:20:35;;;;;;;14.13;9.60;;;;;;;;;;6305777;28;20180;-64
2023/12/08 10:23:35;;;;;;;13.73;8.90;;;-0.90;81.20;;;;;;6285766;28;20188;-64
2023/12/08 10:26:36;;;;;;;18.67;8.53;;;0.40;76.20;;;;;;6285344;28;20226;-63
2023/12/08 10:29:37;;;;;;;11.30;7.90;;;;;;;;;;6270673;28;20549;-64
2023/12/08 10:32:39;;;;;;;11.80;8.20;;;;;;;;;;6285931;28;20218;-64
2023/12/08 10:35:40;;;;;;;13.23;8.50;;;;;;;;;;6299605;28;20203;-64
2023/12/08 10:38:41;;;;;;;12.87;8.43;;;;;;;;;;6289700;28;20207;-63
2023/12/08 10:41:42;;;;;;;11.00;7.47;;;;;;;;;;6295597;28;20267;-64
2023/12/08 10:44:46;;;;;;;9.60;7.70;;;;;;;;;;6295601;28;20255;-63
2023/12/08 10:47:49;;;;;;;10.20;7.00;;;;;;;;;;6318709;28;20206;-62
2023/12/08 10:50:51;;;;;;;11.07;8.53;;;;;;;;;;6287479;28;20219;-62
2023/12/08 10:53:53;;;;;;;11.17;7.70;;;0.40;75.40;;;;;;6319197;28;20200;-62
2023/12/08 10:56:53;;;;;;;11.87;7.90;;;0.80;73.70;;;;;;6288373;28;20219;-62
2023/12/08 11:00:00;;;;;;;13.17;7.73;;;0.70;73.50;;;;;;6269890;28;20180;-62
2023/12/08 11:03:04;;;;;;;10.73;7.97;;;0.80;73.40;;;;;;6289222;28;20184;-62
2023/12/08 11:06:24;;;;;;;10.60;8.00;;;;;;;;;;6296817;28;20226;-62
2023/12/08 11:09:28;;;;;;;12.63;7.83;;;;;;;;;;6290816;28;20213;-62
2023/12/08 11:12:30;;;;;;;10.70;7.87;;;;;;;;;;6308363;28;20188;-62
2023/12/08 11:15:34;;;;;;;12.17;7.70;;;;;;;;;;6283430;28;20284;-62
2023/12/08 11:18:36;;;;;;;9.63;7.20;;;;;;;;;;6304643;28;20192;-62
2023/12/08 11:21:37;;;;;;;9.87;7.77;;;;;;;;;;6303700;28;20213;-62
2023/12/08 11:24:39;;;;;;;11.53;7.97;;;;;;;;;;6276160;28;20181;-62
2023/12/08 11:27:49;;;;;;;12.13;8.70;;;0.80;72.80;;;;;;6300487;28;20196;-62
2023/12/08 11:30:57;;;;;;;11.87;8.47;;;1.40;72.70;;;;;;6307007;28;20192;-62
2023/12/08 11:34:20;;;;;;;14.77;8.60;;;1.50;73.00;;;;;;6302273;28;20186;-62
2023/12/08 11:37:22;;;;;;;12.57;8.63;;;1.60;73.20;;;;;;6307164;28;20212;-62
2023/12/08 11:40:22;;;;;;;10.00;7.70;;;1.60;71.80;;;;;;6288309;28;20212;-62
2023/12/08 11:43:25;;;;;;;13.37;8.87;;;1.70;72.80;;;;;;6288372;28;20236;-62
2023/12/08 11:46:26;;;;;;;11.43;8.43;;;;;;;;;;6308810;28;20193;-62
2023/12/08 11:49:27;;;;;;;17.17;8.50;;;;;;;;;;6287735;28;20196;-62
2023/12/08 11:52:29;;;;;;;12.40;7.37;;;;;;;;;;6298774;28;20184;-62
2023/12/08 11:55:30;;;;;;;12.60;8.27;;;;;;;;;;6279307;28;20302;-62
2023/12/08 11:58:34;;;;;;;10.10;7.63;;;;;;;;;;6292036;28;20193;-62
2023/12/08 12:01:42;;;;;;;10.77;7.73;;;1.70;71.60;;;;;;6282220;28;20189;-62
2023/12/08 12:04:43;;;;;;;12.37;8.97;;;2.00;72.50;;;;;;6275822;28;20209;-62
2023/12/08 12:07:52;;;;;;;9.47;6.97;;;2.10;70.70;;;;;;6297092;28;20223;-62
2023/12/08 12:11:00;;;;;;;14.33;8.93;;;2.10;71.90;;;;;;6300016;28;20219;-62
2023/12/08 12:14:04;;;;;;;12.70;8.90;;;2.10;70.00;;;;;;6317287;28;20192;-62
2023/12/08 12:17:05;;;;;;;9.10;7.20;;;;;;;;;;6298470;28;20224;-62
2023/12/08 12:20:08;;;;;;;12.93;8.30;;;;;;;;;;6278209;28;20202;-62
2023/12/08 12:23:11;;;;;;;11.33;8.00;;;;;;;;;;6302400;28;20180;-62
2023/12/08 12:26:14;;;;;;;9.77;7.80;;;;;;;;;;6272548;28;20197;-62
2023/12/08 12:29:16;;;;;;;13.90;8.50;;;;;;;;;;6283559;28;20280;-62
2023/12/08 12:32:17;;;;;;;18.47;10.03;;;;;;;;;;6276554;28;20635;-62
2023/12/08 12:35:18;;;;;;;13.23;8.87;;;;;;;;;;6315450;28;20300;-62
2023/12/08 12:38:19;;;;;;;13.63;8.80;;;;;;;;;;6271849;28;20196;-62
2023/12/08 12:41:24;;;;;;;12.80;8.97;;;;;;;;;;6279700;28;20260;-62
2023/12/08 12:44:41;;;;;;;10.87;8.80;;;;;;;;;;6292054;28;20233;-62
2023/12/08 12:47:42;;;;;;;23.07;12.60;;;;;;;;;;6271749;28;20223;-62
2023/12/08 12:50:51;;;;;;;17.60;12.57;;;;;;;;;;6262281;28;20205;-62
2023/12/08 12:53:52;;;;;;;19.53;12.83;;;;;;;;;;6274735;28;20193;-62
2023/12/08 12:56:53;;;;;;;17.57;13.20;;;;;;;;;;6260616;28;20288;-62
2023/12/08 12:59:55;;;;;;;16.10;11.90;;;;;;;;;;6254159;28;20229;-61
2023/12/08 13:02:56;;;;;;;18.43;11.60;;;;;;;;;;6266257;28;20269;-62
2023/12/08 13:05:58;;;;;;;18.73;11.77;;;;;;;;;;6254807;28;20201;-62
2023/12/08 13:09:00;;;;;;;17.93;12.60;;;;;;;;;;6249889;28;20202;-62
2023/12/08 13:12:01;;;;;;;16.77;12.60;;;;;;;;;;6273717;28;20185;-62
2023/12/08 13:15:02;;;;;;;18.07;13.27;;;;;;;;;;6256137;28;20201;-62
2023/12/08 13:18:04;;;;;;;18.30;12.73;;;;;;;;;;6261922;28;20215;-62
2023/12/08 13:21:05;;;;;;;16.27;12.27;;;;;;;;;;6256182;28;20288;-62
2023/12/08 13:24:06;;;;;;;17.70;13.00;;;;;;;;;;6284364;28;20234;-62
2023/12/08 13:27:07;;;;;;;17.27;12.50;;;;;;;;;;6255126;28;20197;-62
2023/12/08 13:30:08;;;;;;;18.50;13.47;;;;;;;;;;6239092;28;20197;-62
2023/12/08 13:33:09;;;;;;;16.10;12.10;;;;;;;;;;6256695;28;20201;-62
2023/12/08 13:36:11;;;;;;;21.03;13.23;;;;;;;;;;6247543;28;20366;-62
2023/12/08 13:39:12;;;;;;;19.70;12.97;;;;;;;;;;6252892;28;20193;-62
2023/12/08 13:42:13;;;;;;;21.50;13.20;;;;;;;;;;6245433;28;20190;-62
2023/12/08 13:45:14;;;;;;;20.17;14.60;;;;;;;;;;6288142;28;20241;-62
2023/12/08 13:48:16;;;;;;;20.93;12.87;;;;;;;;;;6293056;28;20185;-62
2023/12/08 13:51:17;;;;;;;18.57;12.63;;;;;;;;;;6283453;28;20225;-62
2023/12/08 13:54:18;;;;;;;17.07;13.07;;;;;;;;;;6293382;28;20196;-62
2023/12/08 13:57:19;;;;;;;17.93;12.50;;;;;;;;;;6287468;28;20334;-62
2023/12/08 14:00:20;;;;;;;21.33;12.50;;;;;;;;;;6288777;28;20200;-62
2023/12/08 14:03:21;;;;;;;17.40;13.30;;;;;;;;;;6286467;28;20364;-62
2023/12/08 14:06:22;;;;;;;14.53;12.07;;;;;;;;;;6285208;28;20215;-62
2023/12/08 14:09:23;;;;;;;18.33;13.23;;;;;;;;;;6300278;28;20189;-62
2023/12/08 14:12:24;;;;;;;17.60;12.47;;;;;;;;;;6299476;28;20199;-62
2023/12/08 14:15:25;;;;;;;16.40;12.07;;;;;;;;;;6288277;28;20201;-62
2023/12/08 14:18:27;;;;;;;16.80;12.30;;;;;;;;;;6286868;28;20241;-62
2023/12/08 14:21:28;;;;;;;18.57;13.47;;;;;;;;;;6290907;28;20222;-62
2023/12/08 14:24:29;;;;;;;18.73;13.07;;;;;;;;;;6302893;28;20284;-62
2023/12/08 14:27:30;;;;;;;16.03;12.60;;;;;;;;;;6286429;28;20198;-62
2023/12/08 14:30:31;;;;;;;15.83;12.37;;;;;;;;;;6300224;28;20188;-62
2023/12/08 14:33:32;;;;;;;18.13;13.40;;;;;;;;;;6286202;28;20199;-62
2023/12/08 14:36:33;;;;;;;15.97;12.33;;;;;;;;;;6277167;28;20221;-62
2023/12/08 14:39:34;;;;;;;17.60;12.33;;;;;;;;;;6285005;28;20223;-62
2023/12/08 14:42:35;;;;;;;19.00;12.53;;;;;;;;;;6281188;28;20243;-62
2023/12/08 14:45:36;;;;;;;12.93;10.97;;;;;;;;;;6309636;28;20281;-62
2023/12/08 14:48:37;;;;;;;17.27;12.13;;;;;;;;;;6294155;28;20199;-62
2023/12/08 14:51:38;;;;;;;17.13;12.13;;;;;;;;;;6286427;28;20189;-62
2023/12/08 14:54:39;;;;;;;15.57;12.37;;;;;;;;;;6301062;28;20226;-62
2023/12/08 14:57:41;;;;;;;13.47;10.57;;;;;;;;;;6284232;28;20216;-62
2023/12/08 15:00:42;;;;;;;18.80;12.37;;;;;;;;;;6302914;28;20196;-62
2023/12/08 15:03:44;;;;;;;17.93;12.70;;;;;;;;;;6282018;28;20192;-62
2023/12/08 15:06:45;;;;;;;19.67;13.23;;;;;;;;;;6308232;28;20188;-62
2023/12/08 15:09:46;;;;;;;19.83;14.20;;;;;;;;;;6298603;28;20249;-62
2023/12/08 15:12:48;;;;;;;18.17;12.83;;;;;;;;;;6284531;28;20204;-62
2023/12/08 15:15:49;;;;;;;16.33;12.90;;;;;;;;;;6289035;28;20216;-62
2023/12/08 15:18:50;;;;;;;20.37;13.97;;;;;;;;;;6311854;28;20325;-62
2023/12/08 15:21:50;;;;;;;19.30;13.77;;;2.20;70.90;;;;;;6285671;28;20195;-62
2023/12/08 15:24:51;;;;;;;21.57;13.93;;;24.00;50.00;;;;;;6271094;28;20255;-62
2023/12/08 15:27:52;;;;;;;18.10;13.50;;;0.50;80.90;;;;;;6271146;28;20192;-62
2023/12/08 15:30:53;;;;;;;22.40;14.77;;;0.50;81.10;;;;;;6275383;28;20200;-62
2023/12/08 15:33:55;;;;;;;17.73;13.47;;;0.40;81.80;;;;;;6291129;28;20248;-62
2023/12/08 15:36:56;;;;;;;19.53;13.10;;;0.40;81.90;;;;;;6270656;28;20212;-62
2023/12/08 15:39:56;;;;;;;18.97;13.10;;;0.40;82.10;;;;;;6306624;28;20219;-62
2023/12/08 15:42:57;;;;;;;20.73;14.03;;;0.30;82.20;;;;;;6273028;28;20248;-62
2023/12/08 15:45:57;;;;;;;17.97;12.87;;;0.30;82.30;;;;;;6283312;28;20200;-62
2023/12/08 15:48:58;;;;;;;20.63;14.60;;;0.30;82.30;;;;;;6299057;28;20193;-62
2023/12/08 15:51:59;;;;;;;20.60;14.17;;;0.20;82.40;;;;;;6289553;28;20193;-62
2023/12/08 15:54:59;;;;;;;18.17;13.67;;;0.20;82.90;;;;;;6286778;28;20203;-62
2023/12/08 15:58:00;;;;;;;17.23;13.23;;;0.10;82.50;;;;;;6289432;28;20214;-62
2023/12/08 16:01:01;;;;;;;17.87;13.23;;;0.00;83.30;;;;;;6285715;28;20203;-62
2023/12/08 16:04:02;;;;;;;19.57;14.53;;;0.00;83.20;;;;;;6290396;28;20192;-62
2023/12/08 16:07:03;;;;;;;23.07;14.73;;;0.00;82.90;;;;;;6288209;28;20200;-62
2023/12/08 16:10:04;;;;;;;19.23;14.60;;;0.00;83.90;;;;;;6281948;28;20250;-62
2023/12/08 16:13:05;;;;;;;20.03;14.60;;;0.00;83.50;;;;;;6277816;28;20198;-62
2023/12/08 16:16:07;;;;;;;23.13;14.93;;;-0.10;83.30;;;;;;6268156;28;20205;-62
2023/12/08 16:19:08;;;;;;;20.50;13.03;;;-0.10;83.40;;;;;;6298163;28;20208;-62
2023/12/08 16:22:09;;;;;;;17.83;13.37;;;-0.10;83.90;;;;;;6306301;28;20198;-62